sensor_id;sensor_type;location;lat;lon;timestamp;P1;durP1;ratioP1;P2;durP2;ratioP2
72904;SDS011;61048;52.162;4.516;2023-08-07T00:01:26;3.78;;;0.40;;
72904;SDS011;61048;52.162;4.516;2023-08-07T00:03:53;3.85;;;0.68;;
72904;SDS011;61048;52.162;4.516;2023-08-07T00:06:19;4.05;;;0.50;;
72904;SDS011;61048;52.162;4.516;2023-08-07T00:08:48;3.42;;;0.50;;
72904;SDS011;61048;52.162;4.516;2023-08-07T00:11:15;2.92;;;0.60;;
72904;SDS011;61048;52.162;4.516;2023-08-07T00:13:42;4.82;;;0.68;;
72904;SDS011;61048;52.162;4.516;2023-08-07T00:16:08;3.13;;;0.68;;
72904;SDS011;61048;52.162;4.516;2023-08-07T00:18:36;5.30;;;0.73;;
72904;SDS011;61048;52.162;4.516;2023-08-07T00:21:03;6.82;;;0.80;;
72904;SDS011;61048;52.162;4.516;2023-08-07T00:23:30;2.30;;;0.30;;
72904;SDS011;61048;52.162;4.516;2023-08-07T00:25:58;2.10;;;0.50;;
72904;SDS011;61048;52.162;4.516;2023-08-07T00:28:25;4.57;;;0.45;;
72904;SDS011;61048;52.162;4.516;2023-08-07T00:30:53;2.22;;;0.45;;
72904;SDS011;61048;52.162;4.516;2023-08-07T00:33:20;3.83;;;0.50;;
72904;SDS011;61048;52.162;4.516;2023-08-07T00:35:47;3.40;;;0.43;;
72904;SDS011;61048;52.162;4.516;2023-08-07T00:38:14;4.68;;;0.60;;
72904;SDS011;61048;52.162;4.516;2023-08-07T00:40:41;3.78;;;0.70;;
72904;SDS011;61048;52.162;4.516;2023-08-07T00:43:10;2.95;;;0.40;;
72904;SDS011;61048;52.162;4.516;2023-08-07T00:45:40;5.88;;;1.15;;
72904;SDS011;61048;52.162;4.516;2023-08-07T00:48:09;4.53;;;0.60;;
72904;SDS011;61048;52.162;4.516;2023-08-07T00:50:38;3.95;;;0.88;;
72904;SDS011;61048;52.162;4.516;2023-08-07T00:53:05;3.90;;;0.50;;
72904;SDS011;61048;52.162;4.516;2023-08-07T00:55:33;3.97;;;0.40;;
72904;SDS011;61048;52.162;4.516;2023-08-07T00:58:00;3.60;;;0.60;;
72904;SDS011;61048;52.162;4.516;2023-08-07T01:00:29;4.18;;;0.60;;
72904;SDS011;61048;52.162;4.516;2023-08-07T01:02:56;2.30;;;0.40;;
72904;SDS011;61048;52.162;4.516;2023-08-07T01:05:24;3.97;;;0.60;;
72904;SDS011;61048;52.162;4.516;2023-08-07T01:07:51;3.58;;;0.50;;
72904;SDS011;61048;52.162;4.516;2023-08-07T01:10:22;5.43;;;0.60;;
72904;SDS011;61048;52.162;4.516;2023-08-07T01:12:57;4.40;;;0.50;;
72904;SDS011;61048;52.162;4.516;2023-08-07T01:15:30;3.55;;;0.40;;
72904;SDS011;61048;52.162;4.516;2023-08-07T01:17:59;3.17;;;0.70;;
72904;SDS011;61048;52.162;4.516;2023-08-07T01:20:27;3.50;;;0.50;;
72904;SDS011;61048;52.162;4.516;2023-08-07T01:22:55;3.30;;;0.95;;
72904;SDS011;61048;52.162;4.516;2023-08-07T01:25:22;3.50;;;0.98;;
72904;SDS011;61048;52.162;4.516;2023-08-07T01:27:50;3.42;;;0.70;;
72904;SDS011;61048;52.162;4.516;2023-08-07T01:30:22;4.30;;;0.50;;
72904;SDS011;61048;52.162;4.516;2023-08-07T01:32:59;4.05;;;0.57;;
72904;SDS011;61048;52.162;4.516;2023-08-07T01:35:36;3.58;;;0.60;;
72904;SDS011;61048;52.162;4.516;2023-08-07T01:38:09;3.72;;;0.80;;
72904;SDS011;61048;52.162;4.516;2023-08-07T01:40:38;5.68;;;0.73;;
72904;SDS011;61048;52.162;4.516;2023-08-07T01:43:06;2.90;;;0.50;;
72904;SDS011;61048;52.162;4.516;2023-08-07T01:45:34;7.60;;;0.63;;
72904;SDS011;61048;52.162;4.516;2023-08-07T01:48:01;4.47;;;0.75;;
72904;SDS011;61048;52.162;4.516;2023-08-07T01:50:28;5.47;;;0.80;;
72904;SDS011;61048;52.162;4.516;2023-08-07T01:52:55;2.97;;;0.57;;
72904;SDS011;61048;52.162;4.516;2023-08-07T01:55:24;2.95;;;0.88;;
72904;SDS011;61048;52.162;4.516;2023-08-07T01:57:51;1.88;;;0.52;;
72904;SDS011;61048;52.162;4.516;2023-08-07T02:00:18;3.05;;;0.80;;
72904;SDS011;61048;52.162;4.516;2023-08-07T02:02:45;6.65;;;0.60;;
72904;SDS011;61048;52.162;4.516;2023-08-07T02:05:13;3.25;;;0.60;;
72904;SDS011;61048;52.162;4.516;2023-08-07T02:07:40;3.63;;;0.60;;
72904;SDS011;61048;52.162;4.516;2023-08-07T02:10:08;3.33;;;0.52;;
72904;SDS011;61048;52.162;4.516;2023-08-07T02:12:36;2.10;;;0.52;;
72904;SDS011;61048;52.162;4.516;2023-08-07T02:15:04;4.55;;;0.77;;
72904;SDS011;61048;52.162;4.516;2023-08-07T02:17:31;5.10;;;0.57;;
72904;SDS011;61048;52.162;4.516;2023-08-07T02:19:58;3.33;;;0.70;;
72904;SDS011;61048;52.162;4.516;2023-08-07T02:22:25;4.05;;;0.60;;
72904;SDS011;61048;52.162;4.516;2023-08-07T02:24:52;3.65;;;0.60;;
72904;SDS011;61048;52.162;4.516;2023-08-07T02:27:19;3.45;;;0.63;;
72904;SDS011;61048;52.162;4.516;2023-08-07T02:29:47;4.93;;;0.88;;
72904;SDS011;61048;52.162;4.516;2023-08-07T02:32:16;3.70;;;1.02;;
72904;SDS011;61048;52.162;4.516;2023-08-07T02:34:44;3.40;;;0.50;;
72904;SDS011;61048;52.162;4.516;2023-08-07T02:37:11;3.58;;;0.82;;
72904;SDS011;61048;52.162;4.516;2023-08-07T02:39:38;4.45;;;0.60;;
72904;SDS011;61048;52.162;4.516;2023-08-07T02:42:06;4.10;;;0.73;;
72904;SDS011;61048;52.162;4.516;2023-08-07T02:44:33;2.67;;;0.60;;
72904;SDS011;61048;52.162;4.516;2023-08-07T02:47:01;2.80;;;0.40;;
72904;SDS011;61048;52.162;4.516;2023-08-07T02:49:28;3.35;;;0.63;;
72904;SDS011;61048;52.162;4.516;2023-08-07T02:51:55;2.13;;;0.43;;
72904;SDS011;61048;52.162;4.516;2023-08-07T02:54:22;4.35;;;0.82;;
72904;SDS011;61048;52.162;4.516;2023-08-07T02:56:49;3.50;;;0.68;;
72904;SDS011;61048;52.162;4.516;2023-08-07T02:59:16;3.83;;;0.40;;
72904;SDS011;61048;52.162;4.516;2023-08-07T03:01:43;6.90;;;0.68;;
72904;SDS011;61048;52.162;4.516;2023-08-07T03:04:11;3.10;;;0.45;;
72904;SDS011;61048;52.162;4.516;2023-08-07T03:06:38;3.75;;;1.10;;
72904;SDS011;61048;52.162;4.516;2023-08-07T03:09:05;3.60;;;0.65;;
72904;SDS011;61048;52.162;4.516;2023-08-07T03:11:32;4.80;;;0.93;;
72904;SDS011;61048;52.162;4.516;2023-08-07T03:13:59;2.13;;;0.40;;
72904;SDS011;61048;52.162;4.516;2023-08-07T03:16:26;2.50;;;0.65;;
72904;SDS011;61048;52.162;4.516;2023-08-07T03:18:53;3.25;;;0.60;;
72904;SDS011;61048;52.162;4.516;2023-08-07T03:21:21;3.00;;;0.60;;
72904;SDS011;61048;52.162;4.516;2023-08-07T03:23:48;4.38;;;0.73;;
72904;SDS011;61048;52.162;4.516;2023-08-07T03:26:15;5.28;;;0.60;;
72904;SDS011;61048;52.162;4.516;2023-08-07T03:28:42;3.60;;;0.43;;
72904;SDS011;61048;52.162;4.516;2023-08-07T03:31:11;1.88;;;0.40;;
72904;SDS011;61048;52.162;4.516;2023-08-07T03:33:38;2.92;;;0.82;;
72904;SDS011;61048;52.162;4.516;2023-08-07T03:36:05;4.70;;;0.55;;
72904;SDS011;61048;52.162;4.516;2023-08-07T03:38:33;6.57;;;0.75;;
72904;SDS011;61048;52.162;4.516;2023-08-07T03:41:00;2.85;;;0.65;;
72904;SDS011;61048;52.162;4.516;2023-08-07T03:43:27;4.85;;;0.70;;
72904;SDS011;61048;52.162;4.516;2023-08-07T03:45:54;4.38;;;0.55;;
72904;SDS011;61048;52.162;4.516;2023-08-07T03:48:22;3.85;;;0.70;;
72904;SDS011;61048;52.162;4.516;2023-08-07T03:50:49;5.85;;;0.50;;
72904;SDS011;61048;52.162;4.516;2023-08-07T03:53:16;3.67;;;0.55;;
72904;SDS011;61048;52.162;4.516;2023-08-07T03:55:45;2.83;;;0.30;;
72904;SDS011;61048;52.162;4.516;2023-08-07T03:58:16;3.38;;;0.63;;
72904;SDS011;61048;52.162;4.516;2023-08-07T04:00:43;2.67;;;0.50;;
72904;SDS011;61048;52.162;4.516;2023-08-07T04:03:10;4.38;;;0.88;;
72904;SDS011;61048;52.162;4.516;2023-08-07T04:05:36;3.70;;;0.32;;
72904;SDS011;61048;52.162;4.516;2023-08-07T04:08:04;3.95;;;0.50;;
72904;SDS011;61048;52.162;4.516;2023-08-07T04:10:31;3.45;;;0.60;;
72904;SDS011;61048;52.162;4.516;2023-08-07T04:12:59;5.60;;;0.80;;
72904;SDS011;61048;52.162;4.516;2023-08-07T04:15:26;3.15;;;0.45;;
72904;SDS011;61048;52.162;4.516;2023-08-07T04:17:53;2.75;;;0.52;;
72904;SDS011;61048;52.162;4.516;2023-08-07T04:20:20;1.50;;;0.52;;
72904;SDS011;61048;52.162;4.516;2023-08-07T04:22:46;4.07;;;0.70;;
72904;SDS011;61048;52.162;4.516;2023-08-07T04:25:13;4.57;;;0.40;;
72904;SDS011;61048;52.162;4.516;2023-08-07T04:27:40;4.20;;;0.60;;
72904;SDS011;61048;52.162;4.516;2023-08-07T04:30:09;3.40;;;0.45;;
72904;SDS011;61048;52.162;4.516;2023-08-07T04:32:37;2.45;;;0.52;;
72904;SDS011;61048;52.162;4.516;2023-08-07T04:35:04;3.47;;;0.47;;
72904;SDS011;61048;52.162;4.516;2023-08-07T04:37:32;3.08;;;0.30;;
72904;SDS011;61048;52.162;4.516;2023-08-07T04:39:59;4.88;;;0.80;;
72904;SDS011;61048;52.162;4.516;2023-08-07T04:42:26;2.80;;;0.45;;
72904;SDS011;61048;52.162;4.516;2023-08-07T04:44:53;5.68;;;0.43;;
72904;SDS011;61048;52.162;4.516;2023-08-07T04:47:22;5.25;;;0.65;;
72904;SDS011;61048;52.162;4.516;2023-08-07T04:49:49;2.50;;;0.57;;
72904;SDS011;61048;52.162;4.516;2023-08-07T04:52:16;2.42;;;0.50;;
72904;SDS011;61048;52.162;4.516;2023-08-07T04:54:42;6.00;;;1.05;;
72904;SDS011;61048;52.162;4.516;2023-08-07T04:57:09;16.58;;;3.50;;
72904;SDS011;61048;52.162;4.516;2023-08-07T04:59:36;31.17;;;5.95;;
72904;SDS011;61048;52.162;4.516;2023-08-07T05:02:03;31.10;;;7.13;;
72904;SDS011;61048;52.162;4.516;2023-08-07T05:04:32;45.05;;;8.35;;
72904;SDS011;61048;52.162;4.516;2023-08-07T05:06:59;30.45;;;8.35;;
72904;SDS011;61048;52.162;4.516;2023-08-07T05:09:26;37.17;;;8.05;;
72904;SDS011;61048;52.162;4.516;2023-08-07T05:11:53;47.80;;;9.57;;
72904;SDS011;61048;52.162;4.516;2023-08-07T05:14:20;30.60;;;8.60;;
72904;SDS011;61048;52.162;4.516;2023-08-07T05:16:47;35.00;;;8.43;;
72904;SDS011;61048;52.162;4.516;2023-08-07T05:19:14;32.15;;;8.35;;
72904;SDS011;61048;52.162;4.516;2023-08-07T05:21:42;39.88;;;8.48;;
72904;SDS011;61048;52.162;4.516;2023-08-07T05:24:09;31.08;;;7.40;;
72904;SDS011;61048;52.162;4.516;2023-08-07T05:26:37;28.27;;;7.88;;
72904;SDS011;61048;52.162;4.516;2023-08-07T05:29:04;30.30;;;7.40;;
72904;SDS011;61048;52.162;4.516;2023-08-07T05:31:32;30.05;;;7.32;;
72904;SDS011;61048;52.162;4.516;2023-08-07T05:33:59;30.15;;;7.35;;
72904;SDS011;61048;52.162;4.516;2023-08-07T05:36:26;24.67;;;6.45;;
72904;SDS011;61048;52.162;4.516;2023-08-07T05:38:56;24.77;;;6.88;;
72904;SDS011;61048;52.162;4.516;2023-08-07T05:41:23;23.95;;;6.90;;
72904;SDS011;61048;52.162;4.516;2023-08-07T05:43:50;21.45;;;5.38;;
72904;SDS011;61048;52.162;4.516;2023-08-07T05:46:17;24.65;;;5.40;;
72904;SDS011;61048;52.162;4.516;2023-08-07T05:48:44;19.17;;;5.78;;
72904;SDS011;61048;52.162;4.516;2023-08-07T05:51:10;20.65;;;4.88;;
72904;SDS011;61048;52.162;4.516;2023-08-07T05:53:37;26.48;;;4.68;;
72904;SDS011;61048;52.162;4.516;2023-08-07T05:56:06;21.75;;;4.35;;
72904;SDS011;61048;52.162;4.516;2023-08-07T05:58:33;19.42;;;4.60;;
72904;SDS011;61048;52.162;4.516;2023-08-07T06:01:00;16.60;;;3.22;;
72904;SDS011;61048;52.162;4.516;2023-08-07T06:03:26;15.82;;;2.92;;
72904;SDS011;61048;52.162;4.516;2023-08-07T06:05:53;11.90;;;3.45;;
72904;SDS011;61048;52.162;4.516;2023-08-07T06:08:20;10.20;;;1.95;;
72904;SDS011;61048;52.162;4.516;2023-08-07T06:10:47;7.85;;;1.50;;
72904;SDS011;61048;52.162;4.516;2023-08-07T06:13:15;8.45;;;2.15;;
72904;SDS011;61048;52.162;4.516;2023-08-07T06:15:42;10.38;;;2.15;;
72904;SDS011;61048;52.162;4.516;2023-08-07T06:18:09;11.30;;;1.75;;
72904;SDS011;61048;52.162;4.516;2023-08-07T06:20:36;5.57;;;1.50;;
72904;SDS011;61048;52.162;4.516;2023-08-07T06:23:03;8.02;;;1.63;;
72904;SDS011;61048;52.162;4.516;2023-08-07T06:25:30;10.52;;;2.30;;
72904;SDS011;61048;52.162;4.516;2023-08-07T06:27:57;7.00;;;1.38;;
72904;SDS011;61048;52.162;4.516;2023-08-07T06:30:26;7.72;;;1.67;;
72904;SDS011;61048;52.162;4.516;2023-08-07T06:32:53;6.72;;;1.30;;
72904;SDS011;61048;52.162;4.516;2023-08-07T06:35:19;7.78;;;1.70;;
72904;SDS011;61048;52.162;4.516;2023-08-07T06:37:46;7.78;;;1.90;;
72904;SDS011;61048;52.162;4.516;2023-08-07T06:40:13;5.97;;;1.70;;
72904;SDS011;61048;52.162;4.516;2023-08-07T06:42:40;6.10;;;1.40;;
72904;SDS011;61048;52.162;4.516;2023-08-07T06:45:07;3.90;;;1.17;;
72904;SDS011;61048;52.162;4.516;2023-08-07T06:47:36;7.32;;;1.30;;
72904;SDS011;61048;52.162;4.516;2023-08-07T06:50:03;6.15;;;1.42;;
72904;SDS011;61048;52.162;4.516;2023-08-07T06:52:31;6.05;;;1.40;;
72904;SDS011;61048;52.162;4.516;2023-08-07T06:54:58;5.05;;;1.00;;
72904;SDS011;61048;52.162;4.516;2023-08-07T06:57:24;8.80;;;1.42;;
72904;SDS011;61048;52.162;4.516;2023-08-07T06:59:51;4.65;;;1.15;;
72904;SDS011;61048;52.162;4.516;2023-08-07T07:02:19;7.57;;;1.33;;
72904;SDS011;61048;52.162;4.516;2023-08-07T07:04:47;4.10;;;0.70;;
72904;SDS011;61048;52.162;4.516;2023-08-07T07:07:14;6.75;;;1.25;;
72904;SDS011;61048;52.162;4.516;2023-08-07T07:09:41;5.15;;;0.90;;
72904;SDS011;61048;52.162;4.516;2023-08-07T07:12:08;5.30;;;0.95;;
72904;SDS011;61048;52.162;4.516;2023-08-07T07:14:35;5.13;;;1.10;;
72904;SDS011;61048;52.162;4.516;2023-08-07T07:17:02;4.60;;;0.85;;
72904;SDS011;61048;52.162;4.516;2023-08-07T07:19:29;3.22;;;0.55;;
72904;SDS011;61048;52.162;4.516;2023-08-07T07:21:58;6.10;;;1.08;;
72904;SDS011;61048;52.162;4.516;2023-08-07T07:24:25;6.28;;;1.58;;
72904;SDS011;61048;52.162;4.516;2023-08-07T07:26:51;2.50;;;0.80;;
72904;SDS011;61048;52.162;4.516;2023-08-07T07:29:18;3.03;;;0.68;;
72904;SDS011;61048;52.162;4.516;2023-08-07T07:31:46;4.07;;;0.68;;
72904;SDS011;61048;52.162;4.516;2023-08-07T07:34:13;6.10;;;1.00;;
72904;SDS011;61048;52.162;4.516;2023-08-07T07:36:40;3.58;;;0.80;;
72904;SDS011;61048;52.162;4.516;2023-08-07T07:39:08;4.88;;;1.10;;
72904;SDS011;61048;52.162;4.516;2023-08-07T07:41:35;9.20;;;1.65;;
72904;SDS011;61048;52.162;4.516;2023-08-07T07:44:02;5.97;;;0.98;;
72904;SDS011;61048;52.162;4.516;2023-08-07T07:46:29;4.10;;;0.60;;
72904;SDS011;61048;52.162;4.516;2023-08-07T07:48:57;3.70;;;0.60;;
72904;SDS011;61048;52.162;4.516;2023-08-07T07:51:24;2.70;;;0.52;;
72904;SDS011;61048;52.162;4.516;2023-08-07T07:53:51;2.45;;;0.55;;
72904;SDS011;61048;52.162;4.516;2023-08-07T07:56:20;6.22;;;0.95;;
72904;SDS011;61048;52.162;4.516;2023-08-07T07:58:47;4.03;;;0.57;;
72904;SDS011;61048;52.162;4.516;2023-08-07T08:01:13;4.55;;;0.80;;
72904;SDS011;61048;52.162;4.516;2023-08-07T08:03:40;6.03;;;0.93;;
72904;SDS011;61048;52.162;4.516;2023-08-07T08:06:08;5.32;;;0.82;;
72904;SDS011;61048;52.162;4.516;2023-08-07T08:08:35;4.43;;;0.68;;
72904;SDS011;61048;52.162;4.516;2023-08-07T08:11:02;2.85;;;0.60;;
72904;SDS011;61048;52.162;4.516;2023-08-07T08:13:30;3.03;;;0.50;;
72904;SDS011;61048;52.162;4.516;2023-08-07T08:15:58;5.20;;;1.10;;
72904;SDS011;61048;52.162;4.516;2023-08-07T08:18:25;4.10;;;0.80;;
72904;SDS011;61048;52.162;4.516;2023-08-07T08:20:53;3.92;;;0.60;;
72904;SDS011;61048;52.162;4.516;2023-08-07T08:23:20;5.00;;;0.95;;
72904;SDS011;61048;52.162;4.516;2023-08-07T08:25:47;3.40;;;0.52;;
72904;SDS011;61048;52.162;4.516;2023-08-07T08:28:15;3.47;;;0.52;;
72904;SDS011;61048;52.162;4.516;2023-08-07T08:30:43;3.58;;;0.60;;
72904;SDS011;61048;52.162;4.516;2023-08-07T08:33:10;4.85;;;0.63;;
72904;SDS011;61048;52.162;4.516;2023-08-07T08:35:39;4.50;;;0.60;;
72904;SDS011;61048;52.162;4.516;2023-08-07T08:38:06;4.03;;;0.82;;
72904;SDS011;61048;52.162;4.516;2023-08-07T08:40:33;2.33;;;0.60;;
72904;SDS011;61048;52.162;4.516;2023-08-07T08:43:04;2.72;;;0.55;;
72904;SDS011;61048;52.162;4.516;2023-08-07T08:45:31;3.83;;;0.68;;
72904;SDS011;61048;52.162;4.516;2023-08-07T08:48:03;2.92;;;0.60;;
72904;SDS011;61048;52.162;4.516;2023-08-07T08:50:32;3.55;;;0.52;;
72904;SDS011;61048;52.162;4.516;2023-08-07T08:53:00;2.67;;;0.70;;
72904;SDS011;61048;52.162;4.516;2023-08-07T08:55:29;3.05;;;0.52;;
72904;SDS011;61048;52.162;4.516;2023-08-07T08:57:58;2.90;;;0.75;;
72904;SDS011;61048;52.162;4.516;2023-08-07T09:00:26;4.32;;;0.63;;
72904;SDS011;61048;52.162;4.516;2023-08-07T09:02:54;3.20;;;0.73;;
72904;SDS011;61048;52.162;4.516;2023-08-07T09:05:23;4.97;;;0.60;;
72904;SDS011;61048;52.162;4.516;2023-08-07T09:07:50;4.50;;;0.90;;
72904;SDS011;61048;52.162;4.516;2023-08-07T09:10:17;4.53;;;0.68;;
72904;SDS011;61048;52.162;4.516;2023-08-07T09:12:45;2.05;;;0.38;;
72904;SDS011;61048;52.162;4.516;2023-08-07T09:15:19;4.22;;;0.70;;
72904;SDS011;61048;52.162;4.516;2023-08-07T09:17:47;3.30;;;0.60;;
72904;SDS011;61048;52.162;4.516;2023-08-07T09:20:16;4.32;;;0.60;;
72904;SDS011;61048;52.162;4.516;2023-08-07T09:22:46;2.40;;;0.43;;
72904;SDS011;61048;52.162;4.516;2023-08-07T09:25:12;3.38;;;0.57;;
72904;SDS011;61048;52.162;4.516;2023-08-07T09:27:40;7.22;;;1.08;;
72904;SDS011;61048;52.162;4.516;2023-08-07T09:30:07;1.92;;;0.40;;
72904;SDS011;61048;52.162;4.516;2023-08-07T09:32:35;3.55;;;0.60;;
72904;SDS011;61048;52.162;4.516;2023-08-07T09:35:03;5.50;;;0.73;;
72904;SDS011;61048;52.162;4.516;2023-08-07T09:37:32;5.72;;;0.80;;
72904;SDS011;61048;52.162;4.516;2023-08-07T09:40:03;3.28;;;0.52;;
72904;SDS011;61048;52.162;4.516;2023-08-07T09:42:31;3.65;;;0.55;;
72904;SDS011;61048;52.162;4.516;2023-08-07T09:44:59;2.25;;;0.70;;
72904;SDS011;61048;52.162;4.516;2023-08-07T09:47:26;3.65;;;0.50;;
72904;SDS011;61048;52.162;4.516;2023-08-07T09:49:55;3.20;;;0.50;;
72904;SDS011;61048;52.162;4.516;2023-08-07T09:52:22;3.05;;;0.57;;
72904;SDS011;61048;52.162;4.516;2023-08-07T09:54:51;2.33;;;0.57;;
72904;SDS011;61048;52.162;4.516;2023-08-07T09:57:22;4.88;;;0.50;;
72904;SDS011;61048;52.162;4.516;2023-08-07T09:59:49;3.45;;;0.60;;
72904;SDS011;61048;52.162;4.516;2023-08-07T10:02:17;2.08;;;0.52;;
72904;SDS011;61048;52.162;4.516;2023-08-07T10:04:45;3.38;;;0.32;;
72904;SDS011;61048;52.162;4.516;2023-08-07T10:07:13;3.85;;;0.60;;
72904;SDS011;61048;52.162;4.516;2023-08-07T10:09:40;1.85;;;0.50;;
72904;SDS011;61048;52.162;4.516;2023-08-07T10:12:09;5.05;;;0.60;;
72904;SDS011;61048;52.162;4.516;2023-08-07T10:14:38;3.85;;;0.65;;
72904;SDS011;61048;52.162;4.516;2023-08-07T10:17:07;3.92;;;0.50;;
72904;SDS011;61048;52.162;4.516;2023-08-07T10:19:35;5.35;;;0.55;;
72904;SDS011;61048;52.162;4.516;2023-08-07T10:22:04;1.88;;;0.40;;
72904;SDS011;61048;52.162;4.516;2023-08-07T10:24:32;3.25;;;0.40;;
72904;SDS011;61048;52.162;4.516;2023-08-07T10:27:02;1.83;;;0.40;;
72904;SDS011;61048;52.162;4.516;2023-08-07T10:29:30;1.73;;;0.30;;
72904;SDS011;61048;52.162;4.516;2023-08-07T10:32:00;3.78;;;0.75;;
72904;SDS011;61048;52.162;4.516;2023-08-07T10:34:28;2.03;;;0.50;;
72904;SDS011;61048;52.162;4.516;2023-08-07T10:36:55;2.45;;;0.95;;
72904;SDS011;61048;52.162;4.516;2023-08-07T10:39:22;4.38;;;0.77;;
72904;SDS011;61048;52.162;4.516;2023-08-07T10:41:52;1.10;;;0.30;;
72904;SDS011;61048;52.162;4.516;2023-08-07T10:44:20;4.32;;;0.93;;
72904;SDS011;61048;52.162;4.516;2023-08-07T10:46:48;4.40;;;0.80;;
72904;SDS011;61048;52.162;4.516;2023-08-07T10:49:36;3.45;;;0.60;;
72904;SDS011;61048;52.162;4.516;2023-08-07T10:52:07;3.00;;;0.55;;
72904;SDS011;61048;52.162;4.516;2023-08-07T10:54:39;4.25;;;0.50;;
72904;SDS011;61048;52.162;4.516;2023-08-07T10:57:09;3.03;;;0.55;;
72904;SDS011;61048;52.162;4.516;2023-08-07T10:59:38;3.15;;;0.63;;
72904;SDS011;61048;52.162;4.516;2023-08-07T11:02:07;3.55;;;0.43;;
72904;SDS011;61048;52.162;4.516;2023-08-07T11:04:38;1.85;;;0.50;;
72904;SDS011;61048;52.162;4.516;2023-08-07T11:07:05;3.38;;;0.50;;
72904;SDS011;61048;52.162;4.516;2023-08-07T11:09:33;2.15;;;0.47;;
72904;SDS011;61048;52.162;4.516;2023-08-07T11:12:00;3.20;;;0.60;;
72904;SDS011;61048;52.162;4.516;2023-08-07T11:14:28;2.78;;;0.43;;
72904;SDS011;61048;52.162;4.516;2023-08-07T11:16:54;2.13;;;0.40;;
72904;SDS011;61048;52.162;4.516;2023-08-07T11:19:22;3.17;;;0.68;;
72904;SDS011;61048;52.162;4.516;2023-08-07T11:21:50;3.28;;;0.57;;
72904;SDS011;61048;52.162;4.516;2023-08-07T11:24:19;2.80;;;0.43;;
72904;SDS011;61048;52.162;4.516;2023-08-07T11:26:47;2.72;;;0.60;;
72904;SDS011;61048;52.162;4.516;2023-08-07T11:29:15;3.88;;;1.00;;
72904;SDS011;61048;52.162;4.516;2023-08-07T11:31:44;2.70;;;0.43;;
72904;SDS011;61048;52.162;4.516;2023-08-07T11:34:11;2.30;;;0.43;;
72904;SDS011;61048;52.162;4.516;2023-08-07T11:36:41;3.67;;;0.55;;
72904;SDS011;61048;52.162;4.516;2023-08-07T11:39:10;3.90;;;0.43;;
72904;SDS011;61048;52.162;4.516;2023-08-07T11:41:38;1.40;;;0.28;;
72904;SDS011;61048;52.162;4.516;2023-08-07T11:44:07;2.70;;;0.40;;
72904;SDS011;61048;52.162;4.516;2023-08-07T11:46:35;2.58;;;0.50;;
72904;SDS011;61048;52.162;4.516;2023-08-07T11:49:02;2.30;;;0.50;;
72904;SDS011;61048;52.162;4.516;2023-08-07T11:51:35;1.75;;;0.35;;
72904;SDS011;61048;52.162;4.516;2023-08-07T11:54:02;5.10;;;0.82;;
72904;SDS011;61048;52.162;4.516;2023-08-07T11:56:31;2.35;;;0.40;;
72904;SDS011;61048;52.162;4.516;2023-08-07T11:58:58;2.58;;;0.47;;
72904;SDS011;61048;52.162;4.516;2023-08-07T12:01:25;3.00;;;0.52;;
72904;SDS011;61048;52.162;4.516;2023-08-07T12:03:55;2.83;;;0.50;;
72904;SDS011;61048;52.162;4.516;2023-08-07T12:06:23;2.30;;;0.57;;
72904;SDS011;61048;52.162;4.516;2023-08-07T12:08:53;1.90;;;0.38;;
72904;SDS011;61048;52.162;4.516;2023-08-07T12:11:21;2.42;;;0.40;;
72904;SDS011;61048;52.162;4.516;2023-08-07T12:13:50;2.75;;;0.60;;
72904;SDS011;61048;52.162;4.516;2023-08-07T12:16:17;2.65;;;0.55;;
72904;SDS011;61048;52.162;4.516;2023-08-07T12:18:46;2.33;;;0.40;;
72904;SDS011;61048;52.162;4.516;2023-08-07T12:21:14;2.30;;;0.50;;
72904;SDS011;61048;52.162;4.516;2023-08-07T12:23:44;2.55;;;0.47;;
72904;SDS011;61048;52.162;4.516;2023-08-07T12:26:12;5.13;;;0.85;;
72904;SDS011;61048;52.162;4.516;2023-08-07T12:28:39;6.22;;;0.93;;
72904;SDS011;61048;52.162;4.516;2023-08-07T12:31:08;3.15;;;0.30;;
72904;SDS011;61048;52.162;4.516;2023-08-07T12:33:35;2.88;;;0.52;;
72904;SDS011;61048;52.162;4.516;2023-08-07T12:36:02;2.40;;;0.50;;
72904;SDS011;61048;52.162;4.516;2023-08-07T12:38:29;1.77;;;0.43;;
72904;SDS011;61048;52.162;4.516;2023-08-07T12:40:56;2.35;;;0.75;;
72904;SDS011;61048;52.162;4.516;2023-08-07T12:43:23;3.13;;;0.50;;
72904;SDS011;61048;52.162;4.516;2023-08-07T12:45:51;3.17;;;0.80;;
72904;SDS011;61048;52.162;4.516;2023-08-07T12:48:19;2.17;;;0.60;;
72904;SDS011;61048;52.162;4.516;2023-08-07T12:50:46;3.08;;;0.47;;
72904;SDS011;61048;52.162;4.516;2023-08-07T12:53:13;3.70;;;0.40;;
72904;SDS011;61048;52.162;4.516;2023-08-07T12:55:40;5.18;;;0.60;;
72904;SDS011;61048;52.162;4.516;2023-08-07T12:58:07;2.97;;;0.40;;
72904;SDS011;61048;52.162;4.516;2023-08-07T13:00:34;2.28;;;0.65;;
72904;SDS011;61048;52.162;4.516;2023-08-07T13:03:01;2.05;;;0.50;;
72904;SDS011;61048;52.162;4.516;2023-08-07T13:05:29;3.97;;;0.50;;
72904;SDS011;61048;52.162;4.516;2023-08-07T13:07:56;2.13;;;0.63;;
72904;SDS011;61048;52.162;4.516;2023-08-07T13:10:24;4.30;;;0.40;;
72904;SDS011;61048;52.162;4.516;2023-08-07T13:12:53;2.17;;;0.55;;
72904;SDS011;61048;52.162;4.516;2023-08-07T13:15:20;1.95;;;0.60;;
72904;SDS011;61048;52.162;4.516;2023-08-07T13:17:47;2.25;;;0.50;;
72904;SDS011;61048;52.162;4.516;2023-08-07T13:20:14;1.52;;;0.60;;
72904;SDS011;61048;52.162;4.516;2023-08-07T13:22:42;1.65;;;0.50;;
72904;SDS011;61048;52.162;4.516;2023-08-07T13:25:10;2.40;;;0.60;;
72904;SDS011;61048;52.162;4.516;2023-08-07T13:27:38;3.72;;;0.60;;
72904;SDS011;61048;52.162;4.516;2023-08-07T13:30:06;3.03;;;0.50;;
72904;SDS011;61048;52.162;4.516;2023-08-07T13:32:34;3.35;;;0.70;;
72904;SDS011;61048;52.162;4.516;2023-08-07T13:35:02;4.28;;;0.80;;
72904;SDS011;61048;52.162;4.516;2023-08-07T13:37:30;3.55;;;0.70;;
72904;SDS011;61048;52.162;4.516;2023-08-07T13:39:58;1.52;;;0.40;;
72904;SDS011;61048;52.162;4.516;2023-08-07T13:42:25;3.58;;;0.90;;
72904;SDS011;61048;52.162;4.516;2023-08-07T13:44:53;1.95;;;0.57;;
72904;SDS011;61048;52.162;4.516;2023-08-07T13:47:22;2.40;;;0.70;;
72904;SDS011;61048;52.162;4.516;2023-08-07T13:49:50;4.43;;;0.68;;
72904;SDS011;61048;52.162;4.516;2023-08-07T13:52:18;3.38;;;0.80;;
72904;SDS011;61048;52.162;4.516;2023-08-07T13:54:45;2.47;;;0.60;;
72904;SDS011;61048;52.162;4.516;2023-08-07T13:57:13;2.10;;;0.60;;
72904;SDS011;61048;52.162;4.516;2023-08-07T13:59:40;3.53;;;0.73;;
72904;SDS011;61048;52.162;4.516;2023-08-07T14:02:07;2.40;;;0.60;;
72904;SDS011;61048;52.162;4.516;2023-08-07T14:04:34;1.88;;;0.40;;
72904;SDS011;61048;52.162;4.516;2023-08-07T14:07:01;1.85;;;0.75;;
72904;SDS011;61048;52.162;4.516;2023-08-07T14:09:29;1.83;;;0.30;;
72904;SDS011;61048;52.162;4.516;2023-08-07T14:11:56;1.80;;;0.40;;
72904;SDS011;61048;52.162;4.516;2023-08-07T14:14:24;3.28;;;0.55;;
72904;SDS011;61048;52.162;4.516;2023-08-07T14:16:51;1.75;;;0.70;;
72904;SDS011;61048;52.162;4.516;2023-08-07T14:19:19;4.20;;;0.60;;
72904;SDS011;61048;52.162;4.516;2023-08-07T14:21:46;4.05;;;0.70;;
72904;SDS011;61048;52.162;4.516;2023-08-07T14:24:13;1.98;;;0.63;;
72904;SDS011;61048;52.162;4.516;2023-08-07T14:26:41;2.38;;;0.55;;
72904;SDS011;61048;52.162;4.516;2023-08-07T14:29:08;3.35;;;1.48;;
72904;SDS011;61048;52.162;4.516;2023-08-07T14:31:36;2.67;;;0.73;;
72904;SDS011;61048;52.162;4.516;2023-08-07T14:34:04;2.97;;;0.65;;
72904;SDS011;61048;52.162;4.516;2023-08-07T14:36:32;2.38;;;1.48;;
72904;SDS011;61048;52.162;4.516;2023-08-07T14:38:59;3.22;;;0.68;;
72904;SDS011;61048;52.162;4.516;2023-08-07T14:41:27;3.60;;;0.88;;
72904;SDS011;61048;52.162;4.516;2023-08-07T14:43:54;2.75;;;0.70;;
72904;SDS011;61048;52.162;4.516;2023-08-07T14:46:21;3.42;;;0.70;;
72904;SDS011;61048;52.162;4.516;2023-08-07T14:48:50;2.80;;;0.70;;